UPSVAC Airport Information Service

Atlanta Hartsfield-Jackson International Airport

ICAO: KATL Country: United States
Latitude: 33.6367 Longitude: -84.428
Latest Arrival : UPSJUMP (KLIT-KATL) Latest Departure : UPSJUMP (KATL-KDFW)


WX CaptureLIVE
Data provided by noaa.gov | Fetched at 10:12:36

METAR : KATL 270952Z 35010KT 7SM -RA FEW045 OVC065 11/09 A2999 RMK AO2 SLP155 P0008 T01110089

TAF : KATL 270733Z 2708/2812 30004KT P6SM -SHRA FEW050 BKN100 TEMPO 2708/2712 3SM SHRA SCT025 BKN050 FM271300 06006KT 6SM SHRA BKN010 OVC020 FM271700 11007KT P6SM VCSH SCT008 OVC010 FM272300 28010G22KT P6SM OVC015 FM280600 32015G24KT P6SM SCT035 SCT150


Runway Data for KATL
Data provided by openaviationdata.com

Runway ID Mag Var Hdg Length Elevation Surface ILS Freq ILS Id ILS Slope
08L -3 93° 8990 ft 1026 ft Concrete 109.3 IHFW 3
08R -3 93° 9989 ft 1026 ft Concrete 109.9 IATL 3
09L -3 93° 11876 ft 1026 ft Concrete 110.5 IHZK 3
09R -3 93° 8990 ft 1026 ft Concrete 108.9 IFUN 3
26L -3 273° 9989 ft 1026 ft Concrete 108.7 IBRU 3
26R -3 273° 8990 ft 1026 ft Concrete 110.1 IGXZ 3
27L -3 273° 8990 ft 1026 ft Concrete 108.5 IFSQ 3
27R -3 273° 11876 ft 1026 ft Concrete 111.3 IAFA 3

Atlanta Hartsfield-Jackson International Airport, United States
Use only for reference purposes



Not for navigational purposes.